sensor_id;sensor_type;location;lat;lon;timestamp;P1;durP1;ratioP1;P2;durP2;ratioP2
18251;SDS011;26917;52.328;20.878;2023-02-15T00:00:16;65.00;;;31.02;;
18251;SDS011;26917;52.328;20.878;2023-02-15T00:02:45;62.20;;;30.38;;
18251;SDS011;26917;52.328;20.878;2023-02-15T00:05:15;65.95;;;29.67;;
18251;SDS011;26917;52.328;20.878;2023-02-15T00:07:44;64.97;;;28.80;;
18251;SDS011;26917;52.328;20.878;2023-02-15T00:10:12;62.40;;;30.17;;
18251;SDS011;26917;52.328;20.878;2023-02-15T00:12:40;55.63;;;27.00;;
18251;SDS011;26917;52.328;20.878;2023-02-15T00:15:09;60.17;;;29.33;;
18251;SDS011;26917;52.328;20.878;2023-02-15T00:17:39;60.92;;;28.55;;
18251;SDS011;26917;52.328;20.878;2023-02-15T00:20:08;65.80;;;28.38;;
18251;SDS011;26917;52.328;20.878;2023-02-15T00:22:39;66.70;;;29.67;;
18251;SDS011;26917;52.328;20.878;2023-02-15T00:25:07;61.38;;;29.48;;
18251;SDS011;26917;52.328;20.878;2023-02-15T00:27:35;64.45;;;29.27;;
18251;SDS011;26917;52.328;20.878;2023-02-15T00:30:04;64.55;;;29.27;;
18251;SDS011;26917;52.328;20.878;2023-02-15T00:32:34;55.30;;;28.27;;
18251;SDS011;26917;52.328;20.878;2023-02-15T00:35:03;71.43;;;28.42;;
18251;SDS011;26917;52.328;20.878;2023-02-15T00:37:33;64.68;;;29.00;;
18251;SDS011;26917;52.328;20.878;2023-02-15T00:40:04;57.33;;;28.88;;
18251;SDS011;26917;52.328;20.878;2023-02-15T00:42:33;59.70;;;29.20;;
18251;SDS011;26917;52.328;20.878;2023-02-15T00:45:02;69.63;;;30.27;;
18251;SDS011;26917;52.328;20.878;2023-02-15T00:47:32;60.38;;;27.70;;
18251;SDS011;26917;52.328;20.878;2023-02-15T00:50:00;63.63;;;29.27;;
18251;SDS011;26917;52.328;20.878;2023-02-15T00:52:29;61.00;;;29.52;;
18251;SDS011;26917;52.328;20.878;2023-02-15T00:54:57;63.70;;;28.58;;
18251;SDS011;26917;52.328;20.878;2023-02-15T00:57:27;61.58;;;28.85;;
18251;SDS011;26917;52.328;20.878;2023-02-15T00:59:55;72.53;;;30.67;;
18251;SDS011;26917;52.328;20.878;2023-02-15T01:02:24;62.28;;;29.30;;
18251;SDS011;26917;52.328;20.878;2023-02-15T01:04:52;52.83;;;25.38;;
18251;SDS011;26917;52.328;20.878;2023-02-15T01:07:21;67.20;;;28.50;;
18251;SDS011;26917;52.328;20.878;2023-02-15T01:09:51;56.25;;;27.08;;
18251;SDS011;26917;52.328;20.878;2023-02-15T01:12:19;64.85;;;30.65;;
18251;SDS011;26917;52.328;20.878;2023-02-15T01:14:50;70.68;;;29.33;;
18251;SDS011;26917;52.328;20.878;2023-02-15T01:17:18;59.03;;;27.67;;
18251;SDS011;26917;52.328;20.878;2023-02-15T01:19:46;64.72;;;27.45;;
18251;SDS011;26917;52.328;20.878;2023-02-15T01:22:15;58.60;;;28.02;;
18251;SDS011;26917;52.328;20.878;2023-02-15T01:24:43;59.72;;;29.08;;
18251;SDS011;26917;52.328;20.878;2023-02-15T01:27:12;65.40;;;30.25;;
18251;SDS011;26917;52.328;20.878;2023-02-15T01:29:40;60.53;;;29.73;;
18251;SDS011;26917;52.328;20.878;2023-02-15T01:32:10;64.43;;;31.17;;
18251;SDS011;26917;52.328;20.878;2023-02-15T01:34:41;68.47;;;31.42;;
18251;SDS011;26917;52.328;20.878;2023-02-15T01:37:11;66.53;;;31.17;;
18251;SDS011;26917;52.328;20.878;2023-02-15T01:39:40;61.35;;;31.42;;
18251;SDS011;26917;52.328;20.878;2023-02-15T01:42:10;60.08;;;29.30;;
18251;SDS011;26917;52.328;20.878;2023-02-15T01:44:49;56.33;;;26.40;;
18251;SDS011;26917;52.328;20.878;2023-02-15T01:47:22;58.97;;;26.73;;
18251;SDS011;26917;52.328;20.878;2023-02-15T01:49:58;58.53;;;28.40;;
18251;SDS011;26917;52.328;20.878;2023-02-15T01:52:31;60.42;;;28.38;;
18251;SDS011;26917;52.328;20.878;2023-02-15T01:55:01;60.58;;;28.33;;
18251;SDS011;26917;52.328;20.878;2023-02-15T01:57:33;58.22;;;27.75;;
18251;SDS011;26917;52.328;20.878;2023-02-15T02:00:03;67.13;;;30.10;;
18251;SDS011;26917;52.328;20.878;2023-02-15T02:02:41;66.28;;;29.10;;
18251;SDS011;26917;52.328;20.878;2023-02-15T02:05:14;58.10;;;28.65;;
18251;SDS011;26917;52.328;20.878;2023-02-15T02:07:43;63.42;;;28.13;;
18251;SDS011;26917;52.328;20.878;2023-02-15T02:10:13;57.60;;;27.38;;
18251;SDS011;26917;52.328;20.878;2023-02-15T02:12:49;62.80;;;29.23;;
18251;SDS011;26917;52.328;20.878;2023-02-15T02:15:21;59.92;;;28.08;;
18251;SDS011;26917;52.328;20.878;2023-02-15T02:18:01;65.85;;;29.00;;
18251;SDS011;26917;52.328;20.878;2023-02-15T02:21:03;60.65;;;26.77;;
18251;SDS011;26917;52.328;20.878;2023-02-15T02:24:08;66.85;;;29.23;;
18251;SDS011;26917;52.328;20.878;2023-02-15T02:30:09;62.08;;;29.38;;
18251;SDS011;26917;52.328;20.878;2023-02-15T02:33:07;65.22;;;28.38;;
18251;SDS011;26917;52.328;20.878;2023-02-15T02:35:57;67.05;;;30.85;;
18251;SDS011;26917;52.328;20.878;2023-02-15T02:38:32;64.18;;;28.42;;
18251;SDS011;26917;52.328;20.878;2023-02-15T02:41:12;62.15;;;29.30;;
18251;SDS011;26917;52.328;20.878;2023-02-15T02:43:49;64.00;;;28.13;;
18251;SDS011;26917;52.328;20.878;2023-02-15T02:46:24;68.97;;;28.55;;
18251;SDS011;26917;52.328;20.878;2023-02-15T02:48:59;59.60;;;27.80;;
18251;SDS011;26917;52.328;20.878;2023-02-15T02:51:30;60.90;;;28.05;;
18251;SDS011;26917;52.328;20.878;2023-02-15T02:53:59;65.50;;;30.02;;
18251;SDS011;26917;52.328;20.878;2023-02-15T02:56:33;60.72;;;28.55;;
18251;SDS011;26917;52.328;20.878;2023-02-15T02:59:07;77.10;;;30.05;;
18251;SDS011;26917;52.328;20.878;2023-02-15T03:01:41;60.83;;;28.63;;
18251;SDS011;26917;52.328;20.878;2023-02-15T03:04:17;70.10;;;28.45;;
18251;SDS011;26917;52.328;20.878;2023-02-15T03:06:49;59.75;;;28.92;;
18251;SDS011;26917;52.328;20.878;2023-02-15T03:09:21;64.55;;;29.63;;
18251;SDS011;26917;52.328;20.878;2023-02-15T03:12:09;66.43;;;28.85;;
18251;SDS011;26917;52.328;20.878;2023-02-15T03:14:44;64.57;;;28.92;;
18251;SDS011;26917;52.328;20.878;2023-02-15T03:17:16;55.60;;;27.23;;
18251;SDS011;26917;52.328;20.878;2023-02-15T03:19:51;59.38;;;27.48;;
18251;SDS011;26917;52.328;20.878;2023-02-15T03:22:23;61.47;;;28.52;;
18251;SDS011;26917;52.328;20.878;2023-02-15T03:24:56;60.67;;;28.17;;
18251;SDS011;26917;52.328;20.878;2023-02-15T03:27:30;60.60;;;26.98;;
18251;SDS011;26917;52.328;20.878;2023-02-15T03:30:01;73.30;;;29.40;;
18251;SDS011;26917;52.328;20.878;2023-02-15T03:32:31;63.53;;;29.65;;
18251;SDS011;26917;52.328;20.878;2023-02-15T03:35:03;58.78;;;28.58;;
18251;SDS011;26917;52.328;20.878;2023-02-15T03:37:34;60.83;;;28.33;;
18251;SDS011;26917;52.328;20.878;2023-02-15T03:40:07;60.38;;;28.73;;
18251;SDS011;26917;52.328;20.878;2023-02-15T03:43:01;55.13;;;26.98;;
18251;SDS011;26917;52.328;20.878;2023-02-15T03:45:38;61.90;;;28.77;;
18251;SDS011;26917;52.328;20.878;2023-02-15T03:48:22;57.28;;;27.33;;
18251;SDS011;26917;52.328;20.878;2023-02-15T03:50:57;57.28;;;26.13;;
18251;SDS011;26917;52.328;20.878;2023-02-15T03:53:50;53.53;;;26.08;;
18251;SDS011;26917;52.328;20.878;2023-02-15T03:56:21;54.75;;;26.63;;
18251;SDS011;26917;52.328;20.878;2023-02-15T03:58:50;64.88;;;27.02;;
18251;SDS011;26917;52.328;20.878;2023-02-15T04:01:37;60.00;;;26.95;;
18251;SDS011;26917;52.328;20.878;2023-02-15T04:04:41;57.80;;;25.83;;
18251;SDS011;26917;52.328;20.878;2023-02-15T04:07:14;58.22;;;25.67;;
18251;SDS011;26917;52.328;20.878;2023-02-15T04:09:43;61.85;;;27.15;;
18251;SDS011;26917;52.328;20.878;2023-02-15T04:12:28;67.60;;;27.98;;
18251;SDS011;26917;52.328;20.878;2023-02-15T04:14:59;63.80;;;28.60;;
18251;SDS011;26917;52.328;20.878;2023-02-15T04:17:44;65.45;;;28.05;;
18251;SDS011;26917;52.328;20.878;2023-02-15T04:20:12;62.50;;;27.25;;
18251;SDS011;26917;52.328;20.878;2023-02-15T04:23:06;63.70;;;27.92;;
18251;SDS011;26917;52.328;20.878;2023-02-15T04:25:52;64.53;;;27.40;;
18251;SDS011;26917;52.328;20.878;2023-02-15T04:28:20;60.30;;;26.80;;
18251;SDS011;26917;52.328;20.878;2023-02-15T04:30:49;55.30;;;25.30;;
18251;SDS011;26917;52.328;20.878;2023-02-15T04:33:17;59.83;;;26.08;;
18251;SDS011;26917;52.328;20.878;2023-02-15T04:35:46;62.40;;;28.40;;
18251;SDS011;26917;52.328;20.878;2023-02-15T04:38:16;64.30;;;29.00;;
18251;SDS011;26917;52.328;20.878;2023-02-15T04:40:44;62.05;;;27.40;;
18251;SDS011;26917;52.328;20.878;2023-02-15T04:43:17;61.75;;;27.27;;
18251;SDS011;26917;52.328;20.878;2023-02-15T04:45:48;60.72;;;29.33;;
18251;SDS011;26917;52.328;20.878;2023-02-15T04:48:17;62.92;;;26.60;;
18251;SDS011;26917;52.328;20.878;2023-02-15T04:50:46;59.40;;;26.63;;
18251;SDS011;26917;52.328;20.878;2023-02-15T04:53:16;58.67;;;26.98;;
18251;SDS011;26917;52.328;20.878;2023-02-15T04:55:44;60.70;;;27.80;;
18251;SDS011;26917;52.328;20.878;2023-02-15T04:58:13;63.95;;;27.52;;
18251;SDS011;26917;52.328;20.878;2023-02-15T05:00:41;60.95;;;24.67;;
18251;SDS011;26917;52.328;20.878;2023-02-15T05:03:09;62.20;;;26.20;;
18251;SDS011;26917;52.328;20.878;2023-02-15T05:05:38;57.90;;;26.42;;
18251;SDS011;26917;52.328;20.878;2023-02-15T05:08:06;65.63;;;25.85;;
18251;SDS011;26917;52.328;20.878;2023-02-15T05:10:37;53.15;;;24.92;;
18251;SDS011;26917;52.328;20.878;2023-02-15T05:13:06;52.28;;;24.83;;
18251;SDS011;26917;52.328;20.878;2023-02-15T05:15:34;52.40;;;25.20;;
18251;SDS011;26917;52.328;20.878;2023-02-15T05:18:03;51.60;;;25.23;;
18251;SDS011;26917;52.328;20.878;2023-02-15T05:20:32;61.83;;;27.08;;
18251;SDS011;26917;52.328;20.878;2023-02-15T05:23:01;61.70;;;26.50;;
18251;SDS011;26917;52.328;20.878;2023-02-15T05:25:29;56.53;;;23.73;;
18251;SDS011;26917;52.328;20.878;2023-02-15T05:28:17;61.72;;;25.58;;
18251;SDS011;26917;52.328;20.878;2023-02-15T05:30:48;61.20;;;24.92;;
18251;SDS011;26917;52.328;20.878;2023-02-15T05:33:17;58.70;;;26.15;;
18251;SDS011;26917;52.328;20.878;2023-02-15T05:35:45;69.43;;;27.60;;
18251;SDS011;26917;52.328;20.878;2023-02-15T05:38:14;71.18;;;28.05;;
18251;SDS011;26917;52.328;20.878;2023-02-15T05:40:42;51.17;;;25.73;;
18251;SDS011;26917;52.328;20.878;2023-02-15T05:43:10;59.75;;;24.48;;
18251;SDS011;26917;52.328;20.878;2023-02-15T05:45:40;50.50;;;24.50;;
18251;SDS011;26917;52.328;20.878;2023-02-15T05:48:13;56.05;;;24.10;;
18251;SDS011;26917;52.328;20.878;2023-02-15T05:50:42;54.08;;;24.75;;
18251;SDS011;26917;52.328;20.878;2023-02-15T05:53:10;54.80;;;25.65;;
18251;SDS011;26917;52.328;20.878;2023-02-15T05:55:39;55.47;;;25.85;;
18251;SDS011;26917;52.328;20.878;2023-02-15T05:58:08;54.63;;;25.10;;
18251;SDS011;26917;52.328;20.878;2023-02-15T06:00:36;58.50;;;26.48;;
18251;SDS011;26917;52.328;20.878;2023-02-15T06:03:06;52.85;;;24.60;;
18251;SDS011;26917;52.328;20.878;2023-02-15T06:05:35;53.75;;;24.63;;
18251;SDS011;26917;52.328;20.878;2023-02-15T06:08:03;59.47;;;25.38;;
18251;SDS011;26917;52.328;20.878;2023-02-15T06:10:34;55.90;;;27.10;;
18251;SDS011;26917;52.328;20.878;2023-02-15T06:13:03;54.88;;;24.88;;
18251;SDS011;26917;52.328;20.878;2023-02-15T06:15:31;56.40;;;26.05;;
18251;SDS011;26917;52.328;20.878;2023-02-15T06:18:00;60.25;;;25.05;;
18251;SDS011;26917;52.328;20.878;2023-02-15T06:20:29;61.45;;;24.83;;
18251;SDS011;26917;52.328;20.878;2023-02-15T06:22:58;56.75;;;24.80;;
18251;SDS011;26917;52.328;20.878;2023-02-15T06:25:27;63.75;;;26.88;;
18251;SDS011;26917;52.328;20.878;2023-02-15T06:27:55;55.20;;;24.45;;
18251;SDS011;26917;52.328;20.878;2023-02-15T06:30:23;55.50;;;23.75;;
18251;SDS011;26917;52.328;20.878;2023-02-15T06:32:52;51.60;;;22.88;;
18251;SDS011;26917;52.328;20.878;2023-02-15T06:35:20;50.72;;;22.83;;
18251;SDS011;26917;52.328;20.878;2023-02-15T06:37:50;52.83;;;23.83;;
18251;SDS011;26917;52.328;20.878;2023-02-15T06:40:19;51.45;;;23.63;;
18251;SDS011;26917;52.328;20.878;2023-02-15T06:42:47;60.53;;;22.75;;
18251;SDS011;26917;52.328;20.878;2023-02-15T06:45:15;52.47;;;23.45;;
18251;SDS011;26917;52.328;20.878;2023-02-15T06:47:44;53.72;;;23.83;;
18251;SDS011;26917;52.328;20.878;2023-02-15T06:50:12;52.40;;;23.70;;
18251;SDS011;26917;52.328;20.878;2023-02-15T06:52:40;52.53;;;22.27;;
18251;SDS011;26917;52.328;20.878;2023-02-15T06:55:10;50.95;;;23.05;;
18251;SDS011;26917;52.328;20.878;2023-02-15T06:57:38;48.47;;;23.70;;
18251;SDS011;26917;52.328;20.878;2023-02-15T07:00:07;54.47;;;23.85;;
18251;SDS011;26917;52.328;20.878;2023-02-15T07:02:36;57.92;;;24.10;;
18251;SDS011;26917;52.328;20.878;2023-02-15T07:05:05;57.33;;;24.75;;
18251;SDS011;26917;52.328;20.878;2023-02-15T07:07:33;50.40;;;22.38;;
18251;SDS011;26917;52.328;20.878;2023-02-15T07:10:02;51.00;;;22.67;;
18251;SDS011;26917;52.328;20.878;2023-02-15T07:12:32;52.70;;;23.65;;
18251;SDS011;26917;52.328;20.878;2023-02-15T07:15:09;51.88;;;24.52;;
18251;SDS011;26917;52.328;20.878;2023-02-15T07:17:39;58.38;;;24.65;;
18251;SDS011;26917;52.328;20.878;2023-02-15T07:20:08;49.28;;;23.65;;
18251;SDS011;26917;52.328;20.878;2023-02-15T07:22:38;51.97;;;22.20;;
18251;SDS011;26917;52.328;20.878;2023-02-15T07:25:07;55.95;;;26.10;;
18251;SDS011;26917;52.328;20.878;2023-02-15T07:27:39;59.95;;;24.00;;
18251;SDS011;26917;52.328;20.878;2023-02-15T07:30:08;50.35;;;23.65;;
18251;SDS011;26917;52.328;20.878;2023-02-15T07:32:40;54.50;;;23.83;;
18251;SDS011;26917;52.328;20.878;2023-02-15T07:35:24;55.25;;;24.73;;
18251;SDS011;26917;52.328;20.878;2023-02-15T07:37:52;60.33;;;26.15;;
18251;SDS011;26917;52.328;20.878;2023-02-15T07:40:21;52.53;;;25.55;;
18251;SDS011;26917;52.328;20.878;2023-02-15T07:42:51;57.30;;;26.10;;
18251;SDS011;26917;52.328;20.878;2023-02-15T07:45:21;52.13;;;25.25;;
18251;SDS011;26917;52.328;20.878;2023-02-15T07:47:49;58.38;;;24.58;;
18251;SDS011;26917;52.328;20.878;2023-02-15T07:50:18;56.13;;;24.73;;
18251;SDS011;26917;52.328;20.878;2023-02-15T07:52:46;57.78;;;26.25;;
18251;SDS011;26917;52.328;20.878;2023-02-15T07:55:14;56.72;;;24.02;;
18251;SDS011;26917;52.328;20.878;2023-02-15T07:57:43;61.45;;;25.25;;
18251;SDS011;26917;52.328;20.878;2023-02-15T08:00:14;51.75;;;24.65;;
18251;SDS011;26917;52.328;20.878;2023-02-15T08:02:47;56.20;;;25.50;;
18251;SDS011;26917;52.328;20.878;2023-02-15T08:05:36;51.15;;;22.67;;
18251;SDS011;26917;52.328;20.878;2023-02-15T08:08:04;53.20;;;22.77;;
18251;SDS011;26917;52.328;20.878;2023-02-15T08:10:33;52.88;;;24.23;;
18251;SDS011;26917;52.328;20.878;2023-02-15T08:13:20;54.95;;;23.45;;
18251;SDS011;26917;52.328;20.878;2023-02-15T08:15:50;59.83;;;24.23;;
18251;SDS011;26917;52.328;20.878;2023-02-15T08:18:18;62.38;;;25.42;;
18251;SDS011;26917;52.328;20.878;2023-02-15T08:20:48;49.33;;;22.80;;
18251;SDS011;26917;52.328;20.878;2023-02-15T08:23:17;55.17;;;23.95;;
18251;SDS011;26917;52.328;20.878;2023-02-15T08:25:45;49.83;;;23.10;;
18251;SDS011;26917;52.328;20.878;2023-02-15T08:28:14;62.22;;;23.90;;
18251;SDS011;26917;52.328;20.878;2023-02-15T08:30:42;57.20;;;24.50;;
18251;SDS011;26917;52.328;20.878;2023-02-15T08:33:12;56.33;;;24.85;;
18251;SDS011;26917;52.328;20.878;2023-02-15T08:35:40;53.05;;;23.38;;
18251;SDS011;26917;52.328;20.878;2023-02-15T08:38:08;53.13;;;26.40;;
18251;SDS011;26917;52.328;20.878;2023-02-15T08:40:37;50.97;;;22.90;;
18251;SDS011;26917;52.328;20.878;2023-02-15T08:43:06;50.35;;;25.17;;
18251;SDS011;26917;52.328;20.878;2023-02-15T08:45:35;49.92;;;24.45;;
18251;SDS011;26917;52.328;20.878;2023-02-15T08:48:04;48.58;;;21.83;;
18251;SDS011;26917;52.328;20.878;2023-02-15T08:50:33;49.88;;;23.23;;
18251;SDS011;26917;52.328;20.878;2023-02-15T08:53:02;47.25;;;21.35;;
18251;SDS011;26917;52.328;20.878;2023-02-15T08:55:30;47.10;;;22.08;;
18251;SDS011;26917;52.328;20.878;2023-02-15T08:57:58;44.78;;;20.95;;
18251;SDS011;26917;52.328;20.878;2023-02-15T09:00:27;46.72;;;22.55;;
18251;SDS011;26917;52.328;20.878;2023-02-15T09:02:56;47.97;;;20.95;;
18251;SDS011;26917;52.328;20.878;2023-02-15T09:05:24;48.30;;;20.65;;
18251;SDS011;26917;52.328;20.878;2023-02-15T09:10:37;47.25;;;19.38;;
18251;SDS011;26917;52.328;20.878;2023-02-15T09:13:06;46.60;;;19.50;;
18251;SDS011;26917;52.328;20.878;2023-02-15T09:15:35;45.45;;;20.92;;
18251;SDS011;26917;52.328;20.878;2023-02-15T09:18:03;47.17;;;20.60;;
18251;SDS011;26917;52.328;20.878;2023-02-15T09:20:34;52.28;;;21.67;;
18251;SDS011;26917;52.328;20.878;2023-02-15T09:23:03;43.90;;;19.83;;
18251;SDS011;26917;52.328;20.878;2023-02-15T09:25:35;52.97;;;20.48;;
18251;SDS011;26917;52.328;20.878;2023-02-15T09:28:03;42.75;;;20.35;;
18251;SDS011;26917;52.328;20.878;2023-02-15T09:30:32;43.05;;;19.85;;
18251;SDS011;26917;52.328;20.878;2023-02-15T09:33:01;41.60;;;19.67;;
18251;SDS011;26917;52.328;20.878;2023-02-15T09:35:30;45.33;;;17.48;;
18251;SDS011;26917;52.328;20.878;2023-02-15T09:37:58;40.50;;;17.25;;
18251;SDS011;26917;52.328;20.878;2023-02-15T09:40:27;36.88;;;16.88;;
18251;SDS011;26917;52.328;20.878;2023-02-15T09:43:07;41.40;;;18.75;;
18251;SDS011;26917;52.328;20.878;2023-02-15T09:48:44;37.03;;;17.45;;
18251;SDS011;26917;52.328;20.878;2023-02-15T09:51:36;39.97;;;17.42;;
18251;SDS011;26917;52.328;20.878;2023-02-15T09:54:38;33.10;;;15.65;;
18251;SDS011;26917;52.328;20.878;2023-02-15T09:57:18;46.42;;;17.88;;
18251;SDS011;26917;52.328;20.878;2023-02-15T09:59:56;43.47;;;18.70;;
18251;SDS011;26917;52.328;20.878;2023-02-15T10:02:44;38.28;;;18.02;;
18251;SDS011;26917;52.328;20.878;2023-02-15T10:05:25;41.90;;;17.35;;
18251;SDS011;26917;52.328;20.878;2023-02-15T10:08:06;43.88;;;18.52;;
18251;SDS011;26917;52.328;20.878;2023-02-15T10:10:51;43.10;;;18.73;;
18251;SDS011;26917;52.328;20.878;2023-02-15T10:13:50;48.45;;;20.77;;
18251;SDS011;26917;52.328;20.878;2023-02-15T10:16:31;46.63;;;21.58;;
18251;SDS011;26917;52.328;20.878;2023-02-15T10:19:08;46.80;;;20.55;;
18251;SDS011;26917;52.328;20.878;2023-02-15T10:21:46;40.08;;;18.50;;
18251;SDS011;26917;52.328;20.878;2023-02-15T10:27:26;46.40;;;21.50;;
18251;SDS011;26917;52.328;20.878;2023-02-15T10:30:02;47.65;;;21.92;;
18251;SDS011;26917;52.328;20.878;2023-02-15T10:32:38;49.67;;;21.25;;
18251;SDS011;26917;52.328;20.878;2023-02-15T10:35:15;48.08;;;20.75;;
18251;SDS011;26917;52.328;20.878;2023-02-15T10:37:55;57.22;;;23.05;;
18251;SDS011;26917;52.328;20.878;2023-02-15T10:40:32;65.68;;;22.17;;
18251;SDS011;26917;52.328;20.878;2023-02-15T10:43:12;55.83;;;22.50;;
18251;SDS011;26917;52.328;20.878;2023-02-15T10:45:49;51.03;;;22.08;;
18251;SDS011;26917;52.328;20.878;2023-02-15T10:48:29;59.13;;;25.02;;
18251;SDS011;26917;52.328;20.878;2023-02-15T10:51:10;54.53;;;23.73;;
18251;SDS011;26917;52.328;20.878;2023-02-15T10:53:51;56.30;;;23.80;;
18251;SDS011;26917;52.328;20.878;2023-02-15T10:56:31;48.45;;;20.73;;
18251;SDS011;26917;52.328;20.878;2023-02-15T10:59:13;53.80;;;22.50;;
18251;SDS011;26917;52.328;20.878;2023-02-15T11:01:53;51.88;;;23.02;;
18251;SDS011;26917;52.328;20.878;2023-02-15T11:04:36;46.92;;;19.40;;
18251;SDS011;26917;52.328;20.878;2023-02-15T11:07:15;53.25;;;20.75;;
18251;SDS011;26917;52.328;20.878;2023-02-15T11:09:48;47.50;;;19.67;;
18251;SDS011;26917;52.328;20.878;2023-02-15T11:12:20;43.53;;;19.85;;
18251;SDS011;26917;52.328;20.878;2023-02-15T11:14:52;44.72;;;19.52;;
18251;SDS011;26917;52.328;20.878;2023-02-15T11:17:26;49.65;;;19.15;;
18251;SDS011;26917;52.328;20.878;2023-02-15T11:20:04;46.85;;;18.77;;
18251;SDS011;26917;52.328;20.878;2023-02-15T11:22:44;50.90;;;20.58;;
18251;SDS011;26917;52.328;20.878;2023-02-15T11:25:17;39.10;;;19.30;;
18251;SDS011;26917;52.328;20.878;2023-02-15T11:27:48;46.05;;;19.38;;
18251;SDS011;26917;52.328;20.878;2023-02-15T11:30:19;38.28;;;19.15;;
18251;SDS011;26917;52.328;20.878;2023-02-15T11:32:49;41.22;;;19.30;;
18251;SDS011;26917;52.328;20.878;2023-02-15T11:35:24;46.72;;;19.35;;
18251;SDS011;26917;52.328;20.878;2023-02-15T11:37:58;36.30;;;18.50;;
18251;SDS011;26917;52.328;20.878;2023-02-15T11:40:33;41.72;;;18.08;;
18251;SDS011;26917;52.328;20.878;2023-02-15T11:43:04;50.70;;;21.45;;
18251;SDS011;26917;52.328;20.878;2023-02-15T11:45:38;42.95;;;18.73;;
18251;SDS011;26917;52.328;20.878;2023-02-15T11:48:10;35.35;;;16.67;;
18251;SDS011;26917;52.328;20.878;2023-02-15T11:53:25;39.65;;;17.73;;
18251;SDS011;26917;52.328;20.878;2023-02-15T11:55:56;38.15;;;17.73;;
18251;SDS011;26917;52.328;20.878;2023-02-15T11:58:27;38.95;;;17.02;;
18251;SDS011;26917;52.328;20.878;2023-02-15T12:01:02;38.72;;;16.27;;
18251;SDS011;26917;52.328;20.878;2023-02-15T12:03:40;39.70;;;16.60;;
18251;SDS011;26917;52.328;20.878;2023-02-15T12:06:27;40.47;;;19.90;;
18251;SDS011;26917;52.328;20.878;2023-02-15T12:09:00;43.95;;;18.15;;
18251;SDS011;26917;52.328;20.878;2023-02-15T12:11:34;36.08;;;16.58;;
18251;SDS011;26917;52.328;20.878;2023-02-15T12:14:05;44.22;;;17.77;;
18251;SDS011;26917;52.328;20.878;2023-02-15T12:16:40;39.20;;;17.92;;
18251;SDS011;26917;52.328;20.878;2023-02-15T12:19:13;38.78;;;17.60;;
18251;SDS011;26917;52.328;20.878;2023-02-15T12:21:55;39.40;;;18.70;;
18251;SDS011;26917;52.328;20.878;2023-02-15T12:24:25;39.70;;;17.02;;
18251;SDS011;26917;52.328;20.878;2023-02-15T12:26:57;37.17;;;18.13;;
18251;SDS011;26917;52.328;20.878;2023-02-15T12:29:29;44.55;;;18.42;;
18251;SDS011;26917;52.328;20.878;2023-02-15T12:32:03;41.58;;;17.92;;
18251;SDS011;26917;52.328;20.878;2023-02-15T12:34:32;45.65;;;20.60;;
18251;SDS011;26917;52.328;20.878;2023-02-15T12:37:10;49.20;;;18.75;;
18251;SDS011;26917;52.328;20.878;2023-02-15T12:39:50;41.67;;;19.73;;
18251;SDS011;26917;52.328;20.878;2023-02-15T12:42:21;46.75;;;19.65;;
18251;SDS011;26917;52.328;20.878;2023-02-15T12:44:54;50.15;;;21.15;;
18251;SDS011;26917;52.328;20.878;2023-02-15T12:47:25;46.50;;;19.63;;
18251;SDS011;26917;52.328;20.878;2023-02-15T12:50:05;44.35;;;21.27;;
18251;SDS011;26917;52.328;20.878;2023-02-15T12:52:48;48.17;;;20.70;;
18251;SDS011;26917;52.328;20.878;2023-02-15T12:55:19;43.10;;;19.80;;
18251;SDS011;26917;52.328;20.878;2023-02-15T12:58:04;44.97;;;20.35;;
18251;SDS011;26917;52.328;20.878;2023-02-15T13:00:33;54.55;;;22.58;;
18251;SDS011;26917;52.328;20.878;2023-02-15T13:03:03;44.70;;;20.38;;
18251;SDS011;26917;52.328;20.878;2023-02-15T13:05:34;56.85;;;22.17;;
18251;SDS011;26917;52.328;20.878;2023-02-15T13:08:10;51.38;;;20.98;;
18251;SDS011;26917;52.328;20.878;2023-02-15T13:10:51;54.03;;;21.63;;
18251;SDS011;26917;52.328;20.878;2023-02-15T13:13:22;52.67;;;22.92;;
18251;SDS011;26917;52.328;20.878;2023-02-15T13:15:53;50.15;;;21.98;;
18251;SDS011;26917;52.328;20.878;2023-02-15T13:18:27;51.25;;;22.15;;
18251;SDS011;26917;52.328;20.878;2023-02-15T13:21:00;47.78;;;21.20;;
18251;SDS011;26917;52.328;20.878;2023-02-15T13:23:40;60.55;;;23.88;;
18251;SDS011;26917;52.328;20.878;2023-02-15T13:26:15;55.05;;;23.27;;
18251;SDS011;26917;52.328;20.878;2023-02-15T13:28:47;53.97;;;22.35;;
18251;SDS011;26917;52.328;20.878;2023-02-15T13:31:19;54.17;;;20.65;;
18251;SDS011;26917;52.328;20.878;2023-02-15T13:33:51;47.03;;;20.80;;
18251;SDS011;26917;52.328;20.878;2023-02-15T13:36:23;55.10;;;22.83;;
18251;SDS011;26917;52.328;20.878;2023-02-15T13:39:03;60.95;;;24.08;;
18251;SDS011;26917;52.328;20.878;2023-02-15T13:41:42;52.42;;;22.25;;
18251;SDS011;26917;52.328;20.878;2023-02-15T13:44:21;54.35;;;24.45;;
18251;SDS011;26917;52.328;20.878;2023-02-15T13:47:06;56.30;;;24.42;;
18251;SDS011;26917;52.328;20.878;2023-02-15T13:49:48;55.03;;;23.13;;
18251;SDS011;26917;52.328;20.878;2023-02-15T13:52:27;49.97;;;22.10;;
18251;SDS011;26917;52.328;20.878;2023-02-15T13:55:01;50.00;;;22.25;;
18251;SDS011;26917;52.328;20.878;2023-02-15T13:58:05;55.72;;;23.15;;
18251;SDS011;26917;52.328;20.878;2023-02-15T14:00:45;57.33;;;23.77;;
18251;SDS011;26917;52.328;20.878;2023-02-15T14:09:26;45.33;;;21.38;;
18251;SDS011;26917;52.328;20.878;2023-02-15T14:12:12;47.92;;;19.52;;
18251;SDS011;26917;52.328;20.878;2023-02-15T14:17:52;48.63;;;20.90;;
18251;SDS011;26917;52.328;20.878;2023-02-15T14:20:31;63.50;;;23.45;;
18251;SDS011;26917;52.328;20.878;2023-02-15T14:23:11;54.67;;;23.98;;
18251;SDS011;26917;52.328;20.878;2023-02-15T14:25:57;56.38;;;23.63;;
18251;SDS011;26917;52.328;20.878;2023-02-15T14:28:33;57.38;;;22.98;;
18251;SDS011;26917;52.328;20.878;2023-02-15T14:31:07;59.50;;;23.33;;
18251;SDS011;26917;52.328;20.878;2023-02-15T14:33:39;56.28;;;22.58;;
18251;SDS011;26917;52.328;20.878;2023-02-15T14:36:10;60.03;;;23.23;;
18251;SDS011;26917;52.328;20.878;2023-02-15T14:38:47;52.88;;;22.23;;
18251;SDS011;26917;52.328;20.878;2023-02-15T14:41:22;53.78;;;22.13;;
18251;SDS011;26917;52.328;20.878;2023-02-15T14:43:59;55.17;;;23.98;;
18251;SDS011;26917;52.328;20.878;2023-02-15T14:46:36;53.55;;;23.58;;
18251;SDS011;26917;52.328;20.878;2023-02-15T14:49:10;53.55;;;22.75;;
18251;SDS011;26917;52.328;20.878;2023-02-15T14:57:25;56.10;;;23.83;;
18251;SDS011;26917;52.328;20.878;2023-02-15T15:03:19;62.45;;;24.30;;
18251;SDS011;26917;52.328;20.878;2023-02-15T15:05:51;49.72;;;20.40;;
18251;SDS011;26917;52.328;20.878;2023-02-15T15:08:24;55.35;;;24.33;;
18251;SDS011;26917;52.328;20.878;2023-02-15T15:10:57;49.25;;;22.65;;
18251;SDS011;26917;52.328;20.878;2023-02-15T15:14:10;49.03;;;21.77;;
18251;SDS011;26917;52.328;20.878;2023-02-15T15:16:55;57.60;;;22.65;;